PWSweather.com
Personal Weather Stations
Station Observations
SHAHALMS1
Eftra, Falkenberg, HA

EftraFalkenberg, HA

Lat: 56.85, Lon: 12.65

Elevation: 140

Station Type:

http://hem.passagen.se/risarp101

High Low Average
Temperature 72.5°F22.5°C 54.5°F12.5°C 63.1°F17.3°C
Dew Point 62.6°F17.0°C 51.3°F10.7°C 56.3°F13.5°C
Winds 13.4 mph 21.6 kmh Calm Calm 3.0 mph ESE4.8 kmh ESE
Wind Gusts 24.3 mph39.1 kmh -- 4.0 mph6.4 kmh
Humidity 95% 54% 80%
Pressure 29.71 in1006.1 mb 29.62 in1003.0 mb -
Precipitation 0.43 in10.9 mm - -
Hour Temp Dew Point Humidity Winds Wind Gusts Pressure Precip Precip Rate Daily Precip Total
12:00 AM 57.2°F14.0°C 52.1°F11.2°C 83% 1.7 mph S2.7 kmh S 2.1 mph3.4 kmh 29.71 in1006.1 mb 0.00 in0.0 mm 0.00 in0.0 mm 0.00 in0.0 mm
12:10 AM 57.2°F14.0°C 52.1°F11.2°C 83% 1.7 mph S2.7 kmh S 2.1 mph3.4 kmh 29.71 in1006.1 mb 0.00 in0.0 mm 0.00 in0.0 mm 0.00 in0.0 mm
12:20 AM 57.0°F13.9°C 52.2°F11.2°C 84% 1.7 mph S2.7 kmh S 2.1 mph3.4 kmh 29.71 in1006.1 mb 0.00 in0.0 mm 0.00 in0.0 mm 0.00 in0.0 mm
12:30 AM 57.6°F14.2°C 53.7°F12.1°C 87% 1.7 mph S2.7 kmh S 2.1 mph3.4 kmh 29.71 in1006.1 mb 0.00 in0.0 mm 0.00 in0.0 mm 0.00 in0.0 mm
12:40 AM 59.4°F15.2°C 56.4°F13.6°C 90% 1.7 mph S2.7 kmh S 2.1 mph3.4 kmh 29.71 in1006.1 mb 0.00 in0.0 mm 0.00 in0.0 mm 0.00 in0.0 mm
12:50 AM 59.0°F15.0°C 55.8°F13.2°C 89% 8.1 mph S13.0 kmh S 12.5 mph20.1 kmh 29.71 in1006.1 mb 0.05 in1.3 mm 0.30 in7.6 mm 0.05 in1.3 mm
01:00 AM 58.6°F14.8°C 55.1°F12.8°C 88% 7.6 mph S12.2 kmh S 20.0 mph32.2 kmh 29.71 in1006.1 mb 0.05 in1.3 mm 0.00 in0.0 mm 0.05 in1.3 mm
01:10 AM 58.6°F14.8°C 55.1°F12.8°C 88% 3.1 mph S5.0 kmh S 7.9 mph12.7 kmh 29.71 in1006.1 mb 0.05 in1.3 mm 0.00 in0.0 mm 0.05 in1.3 mm
01:20 AM 58.6°F14.8°C 55.1°F12.8°C 88% 3.0 mph S4.8 kmh S 6.4 mph10.3 kmh 29.68 in1005.1 mb 0.05 in1.3 mm 0.00 in0.0 mm 0.05 in1.3 mm
01:30 AM 58.6°F14.8°C 55.1°F12.8°C 88% 1.6 mph S2.6 kmh S 8.6 mph13.8 kmh 29.68 in1005.1 mb 0.05 in1.3 mm 0.00 in0.0 mm 0.05 in1.3 mm
01:40 AM 58.5°F14.7°C 54.6°F12.6°C 87% Calm Calm -- 29.68 in1005.1 mb 0.05 in1.3 mm 0.00 in0.0 mm 0.05 in1.3 mm
01:50 AM 58.1°F14.5°C 54.2°F12.3°C 87% Calm Calm -- 29.68 in1005.1 mb 0.00 in0.0 mm 0.00 in0.0 mm 0.05 in1.3 mm
02:00 AM 58.1°F14.5°C 54.6°F12.6°C 88% Calm Calm -- 29.71 in1006.1 mb 0.00 in0.0 mm 0.00 in0.0 mm 0.05 in1.3 mm
02:10 AM 57.7°F14.3°C 53.9°F12.2°C 87% Calm Calm -- 29.71 in1006.1 mb 0.00 in0.0 mm 0.00 in0.0 mm 0.05 in1.3 mm
02:20 AM 57.2°F14.0°C 53.4°F11.9°C 87% Calm Calm -- 29.71 in1006.1 mb 0.00 in0.0 mm 0.00 in0.0 mm 0.05 in1.3 mm
02:30 AM 56.5°F13.6°C 52.3°F11.3°C 86% Calm Calm -- 29.71 in1006.1 mb 0.00 in0.0 mm 0.00 in0.0 mm 0.05 in1.3 mm
02:40 AM 55.6°F13.1°C 51.5°F10.8°C 86% Calm Calm -- 29.71 in1006.1 mb 0.00 in0.0 mm 0.00 in0.0 mm 0.05 in1.3 mm
02:50 AM 55.4°F13.0°C 51.6°F10.9°C 87% Calm Calm -- 29.68 in1005.1 mb 0.00 in0.0 mm 0.00 in0.0 mm 0.05 in1.3 mm
03:00 AM 55.2°F12.9°C 51.4°F10.8°C 87% Calm Calm -- 29.68 in1005.1 mb 0.00 in0.0 mm 0.00 in0.0 mm 0.05 in1.3 mm
03:10 AM 55.2°F12.9°C 51.7°F10.9°C 88% Calm Calm -- 29.68 in1005.1 mb 0.00 in0.0 mm 0.00 in0.0 mm 0.05 in1.3 mm
03:20 AM 55.0°F12.8°C 51.5°F10.8°C 88% Calm Calm -- 29.68 in1005.1 mb 0.00 in0.0 mm 0.00 in0.0 mm 0.05 in1.3 mm
03:30 AM 54.9°F12.7°C 51.4°F10.8°C 88% Calm Calm -- 29.68 in1005.1 mb 0.00 in0.0 mm 0.00 in0.0 mm 0.05 in1.3 mm
03:40 AM 54.7°F12.6°C 51.5°F10.8°C 89% Calm Calm -- 29.68 in1005.1 mb 0.00 in0.0 mm 0.00 in0.0 mm 0.05 in1.3 mm
03:50 AM 54.5°F12.5°C 51.3°F10.7°C 89% Calm Calm -- 29.68 in1005.1 mb 0.00 in0.0 mm 0.00 in0.0 mm 0.05 in1.3 mm
04:00 AM 54.7°F12.6°C 51.5°F10.8°C 89% Calm Calm -- 29.68 in1005.1 mb 0.00 in0.0 mm 0.00 in0.0 mm 0.05 in1.3 mm
04:10 AM 54.9°F12.7°C 52.0°F11.1°C 90% Calm Calm -- 29.68 in1005.1 mb 0.00 in0.0 mm 0.00 in0.0 mm 0.05 in1.3 mm
04:20 AM 55.0°F12.8°C 52.2°F11.2°C 90% Calm Calm -- 29.68 in1005.1 mb 0.00 in0.0 mm 0.00 in0.0 mm 0.05 in1.3 mm
04:30 AM 55.0°F12.8°C 52.2°F11.2°C 90% Calm Calm -- 29.68 in1005.1 mb 0.00 in0.0 mm 0.00 in0.0 mm 0.05 in1.3 mm
04:40 AM 55.0°F12.8°C 52.2°F11.2°C 90% Calm Calm -- 29.68 in1005.1 mb 0.00 in0.0 mm 0.00 in0.0 mm 0.05 in1.3 mm
04:50 AM 55.2°F12.9°C 52.6°F11.4°C 91% Calm Calm -- 29.68 in1005.1 mb 0.00 in0.0 mm 0.00 in0.0 mm 0.05 in1.3 mm
05:00 AM 55.4°F13.0°C 52.8°F11.6°C 91% Calm Calm -- 29.68 in1005.1 mb 0.00 in0.0 mm 0.00 in0.0 mm 0.05 in1.3 mm
05:10 AM 55.6°F13.1°C 53.0°F11.7°C 91% Calm Calm -- 29.68 in1005.1 mb 0.00 in0.0 mm 0.00 in0.0 mm 0.05 in1.3 mm
05:20 AM 55.9°F13.3°C 53.6°F12.0°C 92% Calm Calm -- 29.68 in1005.1 mb 0.00 in0.0 mm 0.00 in0.0 mm 0.05 in1.3 mm
05:30 AM 56.1°F13.4°C 53.8°F12.1°C 92% Calm Calm -- 29.68 in1005.1 mb 0.00 in0.0 mm 0.00 in0.0 mm 0.05 in1.3 mm
05:40 AM 56.3°F13.5°C 54.0°F12.2°C 92% Calm Calm -- 29.68 in1005.1 mb 0.00 in0.0 mm 0.00 in0.0 mm 0.05 in1.3 mm
05:50 AM 56.7°F13.7°C 54.7°F12.6°C 93% Calm Calm -- 29.68 in1005.1 mb 0.00 in0.0 mm 0.00 in0.0 mm 0.05 in1.3 mm
06:00 AM 56.8°F13.8°C 54.8°F12.7°C 93% Calm Calm -- 29.68 in1005.1 mb 0.00 in0.0 mm 0.00 in0.0 mm 0.05 in1.3 mm
06:10 AM 57.4°F14.1°C 55.4°F13.0°C 93% Calm Calm -- 29.68 in1005.1 mb 0.00 in0.0 mm 0.00 in0.0 mm 0.05 in1.3 mm
06:20 AM 58.1°F14.5°C 56.4°F13.6°C 94% Calm Calm -- 29.68 in1005.1 mb 0.00 in0.0 mm 0.00 in0.0 mm 0.05 in1.3 mm
06:30 AM 58.5°F14.7°C 56.7°F13.7°C 94% Calm Calm -- 29.68 in1005.1 mb 0.00 in0.0 mm 0.00 in0.0 mm 0.05 in1.3 mm
06:40 AM 58.8°F14.9°C 57.1°F13.9°C 94% Calm Calm -- 29.68 in1005.1 mb 0.00 in0.0 mm 0.00 in0.0 mm 0.05 in1.3 mm
06:50 AM 59.5°F15.3°C 57.8°F14.3°C 94% Calm Calm -- 29.68 in1005.1 mb 0.00 in0.0 mm 0.00 in0.0 mm 0.05 in1.3 mm
07:00 AM 60.1°F15.6°C 58.3°F14.6°C 94% Calm Calm -- 29.68 in1005.1 mb 0.00 in0.0 mm 0.00 in0.0 mm 0.05 in1.3 mm
07:10 AM 61.2°F16.2°C 59.7°F15.4°C 95% Calm Calm -- 29.68 in1005.1 mb 0.00 in0.0 mm 0.00 in0.0 mm 0.05 in1.3 mm
07:20 AM 62.6°F17.0°C 61.1°F16.2°C 95% 2.5 mph W4.0 kmh W 3.9 mph6.3 kmh 29.68 in1005.1 mb 0.00 in0.0 mm 0.00 in0.0 mm 0.05 in1.3 mm
07:30 AM 64.2°F17.9°C 62.5°F16.9°C 94% 1.5 mph W2.4 kmh W 1.8 mph2.9 kmh 29.68 in1005.1 mb 0.00 in0.0 mm 0.00 in0.0 mm 0.05 in1.3 mm
07:40 AM 65.3°F18.5°C 62.6°F17.0°C 91% 1.5 mph W2.4 kmh W 1.8 mph2.9 kmh 29.68 in1005.1 mb 0.00 in0.0 mm 0.00 in0.0 mm 0.05 in1.3 mm
07:50 AM 65.7°F18.7°C 61.4°F16.3°C 86% 1.5 mph W2.4 kmh W 1.8 mph2.9 kmh 29.68 in1005.1 mb 0.00 in0.0 mm 0.00 in0.0 mm 0.05 in1.3 mm
08:00 AM 66.2°F19.0°C 60.9°F16.1°C 83% 3.5 mph S5.6 kmh S 4.3 mph6.9 kmh 29.68 in1005.1 mb 0.00 in0.0 mm 0.00 in0.0 mm 0.05 in1.3 mm
08:10 AM 67.1°F19.5°C 60.4°F15.8°C 79% 3.5 mph S5.6 kmh S 4.3 mph6.9 kmh 29.68 in1005.1 mb 0.00 in0.0 mm 0.00 in0.0 mm 0.05 in1.3 mm
08:20 AM 67.1°F19.5°C 60.0°F15.6°C 78% 3.5 mph S5.6 kmh S 4.3 mph6.9 kmh 29.68 in1005.1 mb 0.00 in0.0 mm 0.00 in0.0 mm 0.05 in1.3 mm
08:30 AM 66.9°F19.4°C 59.5°F15.3°C 77% 3.5 mph S5.6 kmh S 4.3 mph6.9 kmh 29.68 in1005.1 mb 0.00 in0.0 mm 0.00 in0.0 mm 0.05 in1.3 mm
08:40 AM 66.4°F19.1°C 58.6°F14.8°C 76% 4.9 mph S7.9 kmh S 6.1 mph9.8 kmh 29.68 in1005.1 mb 0.00 in0.0 mm 0.00 in0.0 mm 0.05 in1.3 mm
08:50 AM 66.9°F19.4°C 59.5°F15.3°C 77% 4.9 mph S7.9 kmh S 6.1 mph9.8 kmh 29.68 in1005.1 mb 0.00 in0.0 mm 0.00 in0.0 mm 0.05 in1.3 mm
09:00 AM 67.8°F19.9°C 59.6°F15.3°C 75% 4.9 mph S7.9 kmh S 6.1 mph9.8 kmh 29.68 in1005.1 mb 0.00 in0.0 mm 0.00 in0.0 mm 0.05 in1.3 mm
09:10 AM 68.0°F20.0°C 58.6°F14.8°C 72% 4.9 mph S7.9 kmh S 6.1 mph9.8 kmh 29.68 in1005.1 mb 0.00 in0.0 mm 0.00 in0.0 mm 0.05 in1.3 mm
09:20 AM 69.3°F20.7°C 60.2°F15.7°C 73% 4.9 mph S7.9 kmh S 6.1 mph9.8 kmh 29.68 in1005.1 mb 0.00 in0.0 mm 0.00 in0.0 mm 0.05 in1.3 mm
09:30 AM 70.0°F21.1°C 60.1°F15.6°C 71% 4.9 mph S7.9 kmh S 6.1 mph9.8 kmh 29.71 in1006.1 mb 0.00 in0.0 mm 0.00 in0.0 mm 0.05 in1.3 mm
09:40 AM 70.2°F21.2°C 59.5°F15.3°C 69% 4.9 mph S7.9 kmh S 6.1 mph9.8 kmh 29.71 in1006.1 mb 0.00 in0.0 mm 0.00 in0.0 mm 0.05 in1.3 mm
09:50 AM 69.4°F20.8°C 58.0°F14.4°C 67% 4.9 mph S7.9 kmh S 6.1 mph9.8 kmh 29.71 in1006.1 mb 0.00 in0.0 mm 0.00 in0.0 mm 0.05 in1.3 mm
10:00 AM 68.7°F20.4°C 57.3°F14.1°C 67% 4.9 mph S7.9 kmh S 6.1 mph9.8 kmh 29.71 in1006.1 mb 0.00 in0.0 mm 0.00 in0.0 mm 0.05 in1.3 mm
10:10 AM 68.9°F20.5°C 57.5°F14.2°C 67% 4.9 mph S7.9 kmh S 6.1 mph9.8 kmh 29.71 in1006.1 mb 0.00 in0.0 mm 0.00 in0.0 mm 0.05 in1.3 mm
10:20 AM 69.4°F20.8°C 58.8°F14.9°C 69% 4.9 mph S7.9 kmh S 6.1 mph9.8 kmh 29.68 in1005.1 mb 0.00 in0.0 mm 0.00 in0.0 mm 0.05 in1.3 mm
10:30 AM 69.3°F20.7°C 58.2°F14.6°C 68% 4.9 mph S7.9 kmh S 6.1 mph9.8 kmh 29.71 in1006.1 mb 0.00 in0.0 mm 0.00 in0.0 mm 0.05 in1.3 mm
10:40 AM 68.9°F20.5°C 57.9°F14.4°C 68% 4.9 mph S7.9 kmh S 6.1 mph9.8 kmh 29.71 in1006.1 mb 0.00 in0.0 mm 0.00 in0.0 mm 0.05 in1.3 mm
10:50 AM 69.4°F20.8°C 58.8°F14.9°C 69% 4.9 mph S7.9 kmh S 6.1 mph9.8 kmh 29.68 in1005.1 mb 0.00 in0.0 mm 0.00 in0.0 mm 0.05 in1.3 mm
11:00 AM 70.2°F21.2°C 59.1°F15.1°C 68% 7.3 mph W11.7 kmh W 8.9 mph14.3 kmh 29.68 in1005.1 mb 0.00 in0.0 mm 0.00 in0.0 mm 0.05 in1.3 mm
11:10 AM 70.5°F21.4°C 59.0°F15.0°C 67% 8.5 mph SW13.7 kmh SW 12.9 mph20.8 kmh 29.68 in1005.1 mb 0.00 in0.0 mm 0.00 in0.0 mm 0.05 in1.3 mm
11:20 AM 70.5°F21.4°C 58.6°F14.8°C 66% 8.4 mph S13.5 kmh S 10.4 mph16.7 kmh 29.68 in1005.1 mb 0.00 in0.0 mm 0.00 in0.0 mm 0.05 in1.3 mm
11:30 AM 70.5°F21.4°C 58.6°F14.8°C 66% 7.8 mph S12.6 kmh S 10.4 mph16.7 kmh 29.68 in1005.1 mb 0.00 in0.0 mm 0.00 in0.0 mm 0.05 in1.3 mm
11:40 AM 70.9°F21.6°C 58.1°F14.5°C 64% 10.2 mph S16.4 kmh S 24.3 mph39.1 kmh 29.68 in1005.1 mb 0.00 in0.0 mm 0.00 in0.0 mm 0.05 in1.3 mm
11:50 AM 70.9°F21.6°C 58.5°F14.7°C 65% 9.8 mph S15.8 kmh S 12.5 mph20.1 kmh 29.68 in1005.1 mb 0.00 in0.0 mm 0.00 in0.0 mm 0.05 in1.3 mm
12:00 PM 71.2°F21.8°C 58.0°F14.4°C 63% 6.5 mph S10.5 kmh S 10.0 mph16.1 kmh 29.68 in1005.1 mb 0.00 in0.0 mm 0.00 in0.0 mm 0.05 in1.3 mm
12:10 PM 71.4°F21.9°C 58.2°F14.6°C 63% 13.4 mph S21.6 kmh S 20.0 mph32.2 kmh 29.68 in1005.1 mb 0.00 in0.0 mm 0.00 in0.0 mm 0.05 in1.3 mm
12:20 PM 71.8°F22.1°C 58.1°F14.5°C 62% 10.0 mph WSW16.1 kmh WSW 20.0 mph32.2 kmh 29.68 in1005.1 mb 0.00 in0.0 mm 0.00 in0.0 mm 0.05 in1.3 mm
12:30 PM 71.6°F22.0°C 57.0°F13.9°C 60% 10.2 mph S16.4 kmh S 12.9 mph20.8 kmh 29.68 in1005.1 mb 0.00 in0.0 mm 0.00 in0.0 mm 0.05 in1.3 mm
12:40 PM 71.8°F22.1°C 56.7°F13.7°C 59% 10.5 mph S16.9 kmh S 12.9 mph20.8 kmh 29.68 in1005.1 mb 0.00 in0.0 mm 0.00 in0.0 mm 0.05 in1.3 mm
12:50 PM 72.0°F22.2°C 55.9°F13.3°C 57% 10.5 mph S16.9 kmh S 12.9 mph20.8 kmh 29.68 in1005.1 mb 0.00 in0.0 mm 0.00 in0.0 mm 0.05 in1.3 mm
01:00 PM 72.3°F22.4°C 55.2°F12.9°C 55% 10.5 mph S16.9 kmh S 12.9 mph20.8 kmh 29.68 in1005.1 mb 0.00 in0.0 mm 0.00 in0.0 mm 0.05 in1.3 mm
01:10 PM 72.1°F22.3°C 55.1°F12.8°C 55% 10.5 mph S16.9 kmh S 12.9 mph20.8 kmh 29.68 in1005.1 mb 0.00 in0.0 mm 0.00 in0.0 mm 0.05 in1.3 mm
01:20 PM 71.8°F22.1°C 54.7°F12.6°C 55% 7.9 mph S12.7 kmh S 13.6 mph21.9 kmh 29.68 in1005.1 mb 0.00 in0.0 mm 0.00 in0.0 mm 0.05 in1.3 mm
01:30 PM 72.0°F22.2°C 55.4°F13.0°C 56% 6.5 mph S10.5 kmh S 9.3 mph15.0 kmh 29.71 in1006.1 mb 0.00 in0.0 mm 0.00 in0.0 mm 0.05 in1.3 mm
01:40 PM 72.0°F22.2°C 54.9°F12.7°C 55% 3.1 mph S5.0 kmh S 9.7 mph15.6 kmh 29.71 in1006.1 mb 0.00 in0.0 mm 0.00 in0.0 mm 0.05 in1.3 mm
01:50 PM 72.3°F22.4°C 55.7°F13.2°C 56% 4.3 mph SW6.9 kmh SW 13.6 mph21.9 kmh 29.68 in1005.1 mb 0.00 in0.0 mm 0.00 in0.0 mm 0.05 in1.3 mm
02:00 PM 72.3°F22.4°C 55.2°F12.9°C 55% 5.6 mph SW9.0 kmh SW 13.6 mph21.9 kmh 29.68 in1005.1 mb 0.00 in0.0 mm 0.00 in0.0 mm 0.05 in1.3 mm
02:10 PM 72.5°F22.5°C 54.9°F12.7°C 54% 5.5 mph NW8.9 kmh NW 6.8 mph10.9 kmh 29.68 in1005.1 mb 0.00 in0.0 mm 0.00 in0.0 mm 0.05 in1.3 mm
02:20 PM 72.3°F22.4°C 55.2°F12.9°C 55% 3.8 mph W6.1 kmh W 6.8 mph10.9 kmh 29.68 in1005.1 mb 0.00 in0.0 mm 0.00 in0.0 mm 0.05 in1.3 mm
02:30 PM 72.1°F22.3°C 54.6°F12.6°C 54% 1.7 mph S2.7 kmh S 2.1 mph3.4 kmh 29.68 in1005.1 mb 0.00 in0.0 mm 0.00 in0.0 mm 0.05 in1.3 mm
02:40 PM 72.5°F22.5°C 54.9°F12.7°C 54% 0.8 mph SSW1.3 kmh SSW 2.1 mph3.4 kmh 29.68 in1005.1 mb 0.00 in0.0 mm 0.00 in0.0 mm 0.05 in1.3 mm
02:50 PM 71.8°F22.1°C 54.2°F12.3°C 54% Calm Calm -- 29.68 in1005.1 mb 0.00 in0.0 mm 0.00 in0.0 mm 0.05 in1.3 mm
03:00 PM 70.9°F21.6°C 53.4°F11.9°C 54% Calm Calm -- 29.68 in1005.1 mb 0.00 in0.0 mm 0.00 in0.0 mm 0.05 in1.3 mm
03:10 PM 70.3°F21.3°C 53.4°F11.9°C 55% Calm Calm -- 29.68 in1005.1 mb 0.00 in0.0 mm 0.00 in0.0 mm 0.05 in1.3 mm
03:20 PM 70.2°F21.2°C 53.2°F11.8°C 55% Calm Calm -- 29.68 in1005.1 mb 0.00 in0.0 mm 0.00 in0.0 mm 0.05 in1.3 mm
03:30 PM 70.2°F21.2°C 53.7°F12.1°C 56% Calm Calm -- 29.68 in1005.1 mb 0.00 in0.0 mm 0.00 in0.0 mm 0.05 in1.3 mm
03:40 PM 69.8°F21.0°C 52.9°F11.6°C 55% Calm Calm -- 29.68 in1005.1 mb 0.00 in0.0 mm 0.00 in0.0 mm 0.05 in1.3 mm
03:50 PM 69.6°F20.9°C 53.2°F11.8°C 56% Calm Calm -- 29.65 in1004.1 mb 0.00 in0.0 mm 0.00 in0.0 mm 0.05 in1.3 mm
04:00 PM 69.1°F20.6°C 53.2°F11.8°C 57% Calm Calm -- 29.65 in1004.1 mb 0.00 in0.0 mm 0.00 in0.0 mm 0.05 in1.3 mm
04:10 PM 64.6°F18.1°C 52.1°F11.2°C 64% 5.2 mph S8.4 kmh S 15.0 mph24.1 kmh 29.65 in1004.1 mb 0.09 in2.3 mm 0.54 in13.7 mm 0.14 in3.6 mm
04:20 PM 61.7°F16.5°C 53.7°F12.1°C 75% 9.7 mph S15.6 kmh S 20.4 mph32.8 kmh 29.68 in1005.1 mb 0.24 in6.1 mm 0.90 in22.9 mm 0.29 in7.4 mm
04:30 PM 60.6°F15.9°C 53.7°F12.1°C 78% 6.7 mph S10.8 kmh S 15.0 mph24.1 kmh 29.68 in1005.1 mb 0.34 in8.6 mm 0.60 in15.2 mm 0.38 in9.7 mm
04:40 PM 60.4°F15.8°C 54.2°F12.3°C 80% 3.1 mph S5.0 kmh S 9.7 mph15.6 kmh 29.68 in1005.1 mb 0.34 in8.6 mm 0.00 in0.0 mm 0.38 in9.7 mm
04:50 PM 61.0°F16.1°C 55.8°F13.2°C 83% 4.5 mph SSE7.2 kmh SSE 6.4 mph10.3 kmh 29.68 in1005.1 mb 0.38 in9.7 mm 0.24 in6.1 mm 0.43 in10.9 mm
05:00 PM 62.1°F16.7°C 58.1°F14.5°C 87% 3.3 mph S5.3 kmh S 10.0 mph16.1 kmh 29.68 in1005.1 mb 0.38 in9.7 mm 0.00 in0.0 mm 0.43 in10.9 mm
05:10 PM 63.0°F17.2°C 59.7°F15.4°C 89% 4.7 mph SE7.6 kmh SE 6.1 mph9.8 kmh 29.68 in1005.1 mb 0.29 in7.4 mm 0.00 in0.0 mm 0.43 in10.9 mm
05:20 PM 63.0°F17.2°C 59.3°F15.2°C 88% 6.5 mph SSE10.5 kmh SSE 12.5 mph20.1 kmh 29.68 in1005.1 mb 0.14 in3.6 mm 0.00 in0.0 mm 0.43 in10.9 mm
05:30 PM 62.8°F17.1°C 58.9°F14.9°C 87% 4.4 mph SSE7.1 kmh SSE 7.5 mph12.1 kmh 29.65 in1004.1 mb 0.05 in1.3 mm 0.00 in0.0 mm 0.43 in10.9 mm
05:40 PM 62.6°F17.0°C 58.7°F14.8°C 87% 3.5 mph S5.6 kmh S 4.3 mph6.9 kmh 29.65 in1004.1 mb 0.05 in1.3 mm 0.00 in0.0 mm 0.43 in10.9 mm
05:50 PM 63.5°F17.5°C 59.6°F15.3°C 87% 3.5 mph S5.6 kmh S 4.3 mph6.9 kmh 29.65 in1004.1 mb 0.00 in0.0 mm 0.00 in0.0 mm 0.43 in10.9 mm
06:00 PM 63.5°F17.5°C 59.2°F15.1°C 86% 3.5 mph S5.6 kmh S 4.3 mph6.9 kmh 29.65 in1004.1 mb 0.00 in0.0 mm 0.00 in0.0 mm 0.43 in10.9 mm
06:10 PM 63.1°F17.3°C 58.2°F14.6°C 84% 3.5 mph S5.6 kmh S 4.3 mph6.9 kmh 29.65 in1004.1 mb 0.00 in0.0 mm 0.00 in0.0 mm 0.43 in10.9 mm
06:20 PM 62.8°F17.1°C 57.9°F14.4°C 84% 3.5 mph S5.6 kmh S 4.3 mph6.9 kmh 29.65 in1004.1 mb 0.00 in0.0 mm 0.00 in0.0 mm 0.43 in10.9 mm
06:30 PM 62.2°F16.8°C 57.0°F13.9°C 83% 3.5 mph S5.6 kmh S 4.3 mph6.9 kmh 29.65 in1004.1 mb 0.00 in0.0 mm 0.00 in0.0 mm 0.43 in10.9 mm
06:40 PM 61.9°F16.6°C 56.7°F13.7°C 83% 3.5 mph S5.6 kmh S 4.3 mph6.9 kmh 29.65 in1004.1 mb 0.00 in0.0 mm 0.00 in0.0 mm 0.43 in10.9 mm
06:50 PM 61.7°F16.5°C 56.8°F13.8°C 84% 3.5 mph S5.6 kmh S 4.3 mph6.9 kmh 29.65 in1004.1 mb 0.00 in0.0 mm 0.00 in0.0 mm 0.43 in10.9 mm
07:00 PM 61.7°F16.5°C 57.1°F13.9°C 85% 1.1 mph ESE1.8 kmh ESE 4.7 mph7.6 kmh 29.65 in1004.1 mb 0.00 in0.0 mm 0.00 in0.0 mm 0.43 in10.9 mm
07:10 PM 61.5°F16.4°C 57.0°F13.9°C 85% 1.7 mph ESE2.7 kmh ESE 2.1 mph3.4 kmh 29.65 in1004.1 mb 0.00 in0.0 mm 0.00 in0.0 mm 0.43 in10.9 mm
07:20 PM 61.5°F16.4°C 57.3°F14.1°C 86% 1.7 mph ESE2.7 kmh ESE 2.1 mph3.4 kmh 29.65 in1004.1 mb 0.00 in0.0 mm 0.00 in0.0 mm 0.43 in10.9 mm
07:30 PM 61.3°F16.3°C 57.4°F14.1°C 87% 1.7 mph ESE2.7 kmh ESE 2.1 mph3.4 kmh 29.65 in1004.1 mb 0.00 in0.0 mm 0.00 in0.0 mm 0.43 in10.9 mm
07:40 PM 61.3°F16.3°C 57.4°F14.1°C 87% 1.7 mph ESE2.7 kmh ESE 2.1 mph3.4 kmh 29.65 in1004.1 mb 0.00 in0.0 mm 0.00 in0.0 mm 0.43 in10.9 mm
07:50 PM 61.2°F16.2°C 57.6°F14.2°C 88% 1.7 mph ESE2.7 kmh ESE 2.1 mph3.4 kmh 29.65 in1004.1 mb 0.00 in0.0 mm 0.00 in0.0 mm 0.43 in10.9 mm
08:00 PM 61.2°F16.2°C 57.9°F14.4°C 89% 1.7 mph ESE2.7 kmh ESE 2.1 mph3.4 kmh 29.65 in1004.1 mb 0.00 in0.0 mm 0.00 in0.0 mm 0.43 in10.9 mm
08:10 PM 61.0°F16.1°C 57.7°F14.3°C 89% 1.7 mph ESE2.7 kmh ESE 2.1 mph3.4 kmh 29.65 in1004.1 mb 0.00 in0.0 mm 0.00 in0.0 mm 0.43 in10.9 mm
08:20 PM 60.6°F15.9°C 57.0°F13.9°C 88% 1.7 mph ESE2.7 kmh ESE 2.1 mph3.4 kmh 29.65 in1004.1 mb 0.00 in0.0 mm 0.00 in0.0 mm 0.43 in10.9 mm
08:30 PM 60.4°F15.8°C 56.9°F13.8°C 88% 1.7 mph ESE2.7 kmh ESE 2.1 mph3.4 kmh 29.68 in1005.1 mb 0.00 in0.0 mm 0.00 in0.0 mm 0.43 in10.9 mm
08:40 PM 60.3°F15.7°C 56.7°F13.7°C 88% 1.7 mph ESE2.7 kmh ESE 2.1 mph3.4 kmh 29.68 in1005.1 mb 0.00 in0.0 mm 0.00 in0.0 mm 0.43 in10.9 mm
08:50 PM 60.4°F15.8°C 57.2°F14.0°C 89% 1.7 mph ESE2.7 kmh ESE 2.1 mph3.4 kmh 29.65 in1004.1 mb 0.00 in0.0 mm 0.00 in0.0 mm 0.43 in10.9 mm
09:00 PM 61.2°F16.2°C 58.2°F14.6°C 90% 0.9 mph W1.4 kmh W 1.8 mph2.9 kmh 29.65 in1004.1 mb 0.00 in0.0 mm 0.00 in0.0 mm 0.43 in10.9 mm
09:10 PM 61.5°F16.4°C 58.9°F14.9°C 91% 2.2 mph S3.5 kmh S 9.7 mph15.6 kmh 29.65 in1004.1 mb 0.00 in0.0 mm 0.00 in0.0 mm 0.43 in10.9 mm
09:20 PM 61.7°F16.5°C 59.0°F15.0°C 91% 1.6 mph SSW2.6 kmh SSW 9.7 mph15.6 kmh 29.65 in1004.1 mb 0.00 in0.0 mm 0.00 in0.0 mm 0.43 in10.9 mm
09:30 PM 61.7°F16.5°C 59.0°F15.0°C 91% 0.2 mph S0.3 kmh S 2.5 mph4.0 kmh 29.65 in1004.1 mb 0.00 in0.0 mm 0.00 in0.0 mm 0.43 in10.9 mm
09:40 PM 61.7°F16.5°C 59.0°F15.0°C 91% 0.3 mph S0.5 kmh S 1.8 mph2.9 kmh 29.65 in1004.1 mb 0.00 in0.0 mm 0.00 in0.0 mm 0.43 in10.9 mm
09:50 PM 61.5°F16.4°C 58.6°F14.8°C 90% Calm Calm -- 29.65 in1004.1 mb 0.00 in0.0 mm 0.00 in0.0 mm 0.43 in10.9 mm
10:00 PM 61.3°F16.3°C 58.4°F14.7°C 90% Calm Calm -- 29.65 in1004.1 mb 0.00 in0.0 mm 0.00 in0.0 mm 0.43 in10.9 mm
10:10 PM 61.2°F16.2°C 58.2°F14.6°C 90% Calm Calm -- 29.65 in1004.1 mb 0.00 in0.0 mm 0.00 in0.0 mm 0.43 in10.9 mm
10:20 PM 61.2°F16.2°C 58.5°F14.7°C 91% 0.6 mph S1.0 kmh S 3.2 mph5.1 kmh 29.65 in1004.1 mb 0.00 in0.0 mm 0.00 in0.0 mm 0.43 in10.9 mm
10:30 PM 61.2°F16.2°C 58.5°F14.7°C 91% 0.4 mph S0.6 kmh S 5.0 mph8.0 kmh 29.62 in1003.0 mb 0.00 in0.0 mm 0.00 in0.0 mm 0.43 in10.9 mm
10:40 PM 61.3°F16.3°C 58.7°F14.8°C 91% Calm Calm -- 29.62 in1003.0 mb 0.00 in0.0 mm 0.00 in0.0 mm 0.43 in10.9 mm
10:50 PM 61.3°F16.3°C 58.7°F14.8°C 91% Calm Calm -- 29.65 in1004.1 mb 0.00 in0.0 mm 0.00 in0.0 mm 0.43 in10.9 mm
11:00 PM 61.2°F16.2°C 58.5°F14.7°C 91% Calm Calm -- 29.65 in1004.1 mb 0.00 in0.0 mm 0.00 in0.0 mm 0.43 in10.9 mm
11:10 PM 61.0°F16.1°C 58.3°F14.6°C 91% Calm Calm -- 29.65 in1004.1 mb 0.00 in0.0 mm 0.00 in0.0 mm 0.43 in10.9 mm
11:20 PM 60.4°F15.8°C 57.5°F14.2°C 90% Calm Calm -- 29.65 in1004.1 mb 0.00 in0.0 mm 0.00 in0.0 mm 0.43 in10.9 mm
11:30 PM 60.1°F15.6°C 57.1°F13.9°C 90% Calm Calm -- 29.62 in1003.0 mb 0.00 in0.0 mm 0.00 in0.0 mm 0.43 in10.9 mm
11:40 PM 59.5°F15.3°C 56.6°F13.7°C 90% Calm Calm -- 29.62 in1003.0 mb 0.00 in0.0 mm 0.00 in0.0 mm 0.43 in10.9 mm
11:50 PM 59.2°F15.1°C 56.2°F13.4°C 90% Calm Calm -- 29.65 in1004.1 mb 0.00 in0.0 mm 0.00 in0.0 mm 0.43 in10.9 mm